Time;durP1;ratioP1;P1;durP2;ratioP2;P2;SDS_P1;SDS_P2;PMS_P1;PMS_P2;Temp;Humidity;BMP_temperature;BMP_pressure;BME280_temperature;BME280_humidity;BME280_pressure;Samples;Min_cycle;Max_cycle;Signal;HPM_P1;HPM_P2
2022/01/06 00:01:39;;;;;;;;;;;;;;;2.43;95.84;97128.61;1597680;86;20518;-84
2022/01/06 00:04:06;;;;;;;;;;;;;;;2.43;95.78;97129.91;1588021;88;25381;-84
2022/01/06 00:06:37;;;;;;;;;;;;;;;2.43;95.75;97120.86;1597458;89;22008;-84
2022/01/06 00:09:03;;;;;;;;;;;;;;;2.44;95.69;97131.11;1599530;88;25981;-84
2022/01/06 00:11:29;;;;;;;;;;;;;;;2.44;95.62;97127.23;1611602;87;24466;-85
2022/01/06 00:14:12;;;;;;;;;;;;;;;2.44;95.55;97149.64;1598871;88;20252;-87
2022/01/06 00:16:42;;;;;;;;;;;;;;;2.43;95.48;97143.64;1596234;89;24995;-86
2022/01/06 00:24:20;;;;;;;;;;;;;;;2.46;95.38;97144.75;1593741;89;24523;-87
2022/01/06 00:26:48;;;;;;;;;;;;;;;2.45;95.32;97155.19;1598847;88;20515;-87
2022/01/06 00:29:15;;;;;;;;;;;;;;;2.45;95.29;97153.44;1600973;88;25023;-87
2022/01/06 00:31:41;;;;;;;;;;;;;;;2.46;95.26;97149.91;1608314;88;21996;-87
2022/01/06 00:34:10;;;;;;;;;;;;;;;2.46;95.21;97155.53;1609224;87;26051;-88
2022/01/06 00:36:38;;;;;;;;;;;;;;;2.46;95.14;97144.75;1607202;88;24495;-88
2022/01/06 00:39:07;;;;;;;;;;;;;;;2.45;95.10;97153.89;1633009;86;20291;-88
2022/01/06 00:41:33;;;;;;;;;;;;;;;2.44;95.06;97147.89;1604895;89;24723;-88
2022/01/06 00:44:03;;;;;;;;;;;;;;;2.45;95.01;97138.40;1617723;88;22055;-88
2022/01/06 00:46:30;;;;;;;;;;;;;;;2.44;94.94;97141.44;1630129;86;27041;-88
2022/01/06 00:48:56;;;;;;;;;;;;;;;2.43;94.86;97149.27;1626578;88;24453;-88
2022/01/06 00:51:28;;;;;;;;;;;;;;;2.42;94.79;97152.76;1630947;86;20248;-88
2022/01/06 00:53:54;;;;;;;;;;;;;;;2.41;94.72;97147.22;1632544;87;24834;-88
2022/01/06 00:56:22;;;;;;;;;;;;;;;2.41;94.65;97140.31;1610623;87;20217;-88
2022/01/06 00:58:48;;;;;;;;;;;;;;;2.40;94.60;97141.22;1614070;87;25965;-88
2022/01/06 01:01:14;;;;;;;;;;;;;;;2.42;94.53;97138.56;1614085;87;24398;-88
2022/01/06 01:03:42;;;;;;;;;;;;;;;2.42;94.50;97132.94;1615744;87;20221;-88
2022/01/06 01:06:10;;;;;;;;;;;;;;;2.42;94.47;97121.33;1614961;86;24791;-88
2022/01/06 01:08:38;;;;;;;;;;;;;;;2.42;94.43;97123.07;1641719;85;21803;-88
2022/01/06 01:11:06;;;;;;;;;;;;;;;2.42;94.41;97107.13;1631545;86;21169;-88
2022/01/06 01:13:36;;;;;;;;;;;;;;;2.42;94.37;97113.58;1649738;86;24619;-88
2022/01/06 01:16:22;;;;;;;;;;;;;;;2.43;94.37;97113.13;1594437;88;20261;-88
2022/01/06 01:18:45;;;;;;;;;;;;;;;2.45;94.36;97116.45;1594380;88;24779;-88
2022/01/06 01:21:06;;;;;;;;;;;;;;;2.46;94.36;97104.72;1592379;87;22791;-89
2022/01/06 01:23:32;;;;;;;;;;;;;;;2.47;94.37;97103.81;1626993;86;26229;-89
2022/01/06 01:25:58;;;;;;;;;;;;;;;2.49;94.39;97103.27;1620797;86;25432;-89
2022/01/06 01:28:32;;;;;;;;;;;;;;;2.49;94.38;97105.02;1626933;86;20272;-88
2022/01/06 01:31:02;;;;;;;;;;;;;;;2.49;94.37;97108.89;1621781;86;24829;-87
2022/01/06 01:33:23;;;;;;;;;;;;;;;2.49;94.32;97112.77;1618338;87;22117;-86
2022/01/06 01:35:49;;;;;;;;;;;;;;;2.50;94.29;97113.98;1626893;86;26021;-87
2022/01/06 01:38:15;;;;;;;;;;;;;;;2.50;94.24;97113.14;1622344;86;24541;-86
2022/01/06 01:40:41;;;;;;;;;;;;;;;2.51;94.19;97121.23;1627695;86;20343;-88
2022/01/06 01:43:07;;;;;;;;;;;;;;;2.51;94.20;97113.48;1611593;88;24818;-88
2022/01/06 01:45:39;;;;;;;;;;;;;;;2.52;94.16;97117.28;1595983;89;20347;-88
2022/01/06 01:48:06;;;;;;;;;;;;;;;2.55;94.17;97120.61;1622114;87;26099;-89
2022/01/06 01:50:31;;;;;;;;;;;;;;;2.57;94.20;97129.91;1635828;86;24522;-88
2022/01/06 01:52:57;;;;;;;;;;;;;;;2.57;94.21;97135.08;1615247;87;20241;-88
2022/01/06 01:55:25;;;;;;;;;;;;;;;2.57;94.21;97144.12;1605019;89;24759;-88
2022/01/06 01:57:51;;;;;;;;;;;;;;;2.57;94.20;97144.12;1612255;88;21771;-85
2022/01/06 02:00:19;;;;;;;;;;;;;;;2.60;94.20;97153.45;1622674;86;26064;-85
2022/01/06 02:02:47;;;;;;;;;;;;;;;2.61;94.25;97161.12;1629573;86;24583;-85
2022/01/06 02:05:24;;;;;;;;;;;;;;;2.63;94.23;97161.00;1611754;87;20258;-85
2022/01/06 02:07:41;;;;;;;;;;;;;;;2.63;94.23;97167.00;1614457;88;24746;-90
2022/01/06 02:10:09;;;;;;;;;;;;;;;2.63;94.17;97168.30;1624418;86;21829;-91
2022/01/06 02:12:38;;;;;;;;;;;;;;;2.62;94.14;97167.92;1611354;87;26027;-86
2022/01/06 02:15:06;;;;;;;;;;;;;;;2.63;94.11;97164.42;1608291;87;24614;-86
2022/01/06 02:17:41;;;;;;;;;;;;;;;2.64;94.10;97162.22;1632630;88;20285;-88
2022/01/06 02:20:05;;;;;;;;;;;;;;;2.64;94.08;97164.80;1634383;87;25555;-86
2022/01/06 02:22:46;;;;;;;;;;;;;;;2.63;94.03;97168.30;1633786;87;22102;-91
2022/01/06 02:25:23;;;;;;;;;;;;;;;2.65;94.00;97163.05;1634086;87;26177;-86
2022/01/06 02:27:51;;;;;;;;;;;;;;;2.64;93.95;97167.84;1618991;87;24624;-86
2022/01/06 02:30:17;;;;;;;;;;;;;;;2.65;93.89;97166.92;1620089;88;20279;-85
2022/01/06 02:32:44;;;;;;;;;;;;;;;2.64;93.85;97166.09;1633780;86;24786;-86
2022/01/06 02:35:12;;;;;;;;;;;;;;;2.64;93.84;97158.34;1634068;87;22048;-91
2022/01/06 02:37:38;;;;;;;;;;;;;;;2.63;93.81;97154.55;1606541;88;26068;-86
2022/01/06 02:40:08;;;;;;;;;;;;;;;2.64;93.77;97157.51;1607700;87;24524;-84
2022/01/06 02:42:35;;;;;;;;;;;;;;;2.64;93.76;97157.05;1607714;87;20554;-90
2022/01/06 02:45:01;;;;;;;;;;;;;;;2.65;93.75;97160.01;1623029;88;24824;-85
2022/01/06 02:47:27;;;;;;;;;;;;;;;2.64;93.73;97155.76;1623306;87;21879;-86
2022/01/06 02:49:59;;;;;;;;;;;;;;;2.63;93.69;97159.25;1626926;87;26608;-85
2022/01/06 02:52:25;;;;;;;;;;;;;;;2.64;93.67;97155.76;1621056;86;24475;-93
2022/01/06 02:55:12;;;;;;;;;;;;;;;2.65;93.66;97155.30;1622050;87;20495;-92
2022/01/06 02:57:39;;;;;;;;;;;;;;;2.68;93.67;97156.40;1623280;86;24744;-87
2022/01/06 03:00:07;;;;;;;;;;;;;;;2.67;93.67;97158.18;1593893;88;22093;-87
2022/01/06 03:02:33;;;;;;;;;;;;;;;2.68;93.65;97161.11;1619348;88;26096;-90
2022/01/06 03:05:01;;;;;;;;;;;;;;;2.67;93.65;97159.47;1624986;86;25204;-91
2022/01/06 03:07:27;;;;;;;;;;;;;;;2.69;93.63;97159.36;1623861;86;20229;-92
2022/01/06 03:09:56;;;;;;;;;;;;;;;2.70;93.63;97162.31;1623275;87;25409;-84
2022/01/06 03:12:39;;;;;;;;;;;;;;;2.70;93.62;97163.15;1623070;87;22950;-88
2022/01/06 03:15:02;;;;;;;;;;;;;;;2.68;93.59;97170.60;1603273;87;25975;-84
2022/01/06 03:17:28;;;;;;;;;;;;;;;2.70;93.58;97168.77;1624059;86;20299;-88
2022/01/06 03:19:54;;;;;;;;;;;;;;;2.68;93.56;97164.14;1593479;89;20643;-84
2022/01/06 03:22:20;;;;;;;;;;;;;;;2.69;93.55;97165.81;1619357;88;24834;-84
2022/01/06 03:24:46;;;;;;;;;;;;;;;2.69;93.53;97166.65;1623668;86;22109;-84
2022/01/06 03:27:19;;;;;;;;;;;;;;;2.71;93.49;97172.56;1622139;86;25985;-92
2022/01/06 03:29:45;;;;;;;;;;;;;;;2.72;93.49;97169.53;1621818;86;24527;-91
2022/01/06 03:32:11;;;;;;;;;;;;;;;2.72;93.50;97167.78;1623192;87;20274;-86
2022/01/06 03:34:37;;;;;;;;;;;;;;;2.74;93.49;97168.95;1621548;87;24743;-91
2022/01/06 03:37:06;;;;;;;;;;;;;;;2.75;93.49;97168.88;1623969;86;22082;-91
2022/01/06 03:39:34;;;;;;;;;;;;;;;2.76;93.50;97171.83;1598720;88;26188;-91
2022/01/06 03:42:00;;;;;;;;;;;;;;;2.79;93.53;97176.81;1620721;88;24433;-88
2022/01/06 03:44:38;;;;;;;;;;;;;;;2.79;93.53;97166.47;1626631;86;20213;-91
2022/01/06 03:47:05;;;;;;;;;;;;;;;2.79;93.52;97174.68;1624719;86;25027;-83
2022/01/06 03:49:34;;;;;;;;;;;;;;;2.78;93.52;97181.59;1594936;89;22000;-85
2022/01/06 03:52:00;;;;;;;;;;;;;;;2.77;93.50;97183.84;1620097;88;26086;-88
2022/01/06 03:54:26;;;;;;;;;;;;;;;2.79;93.48;97179.84;1623013;85;24449;-88
2022/01/06 03:56:52;;;;;;;;;;;;;;;2.79;93.47;97185.84;1624769;88;20356;-91
2022/01/06 03:59:19;;;;;;;;;;;;;;;2.80;93.48;97184.94;1621363;88;24727;-84
2022/01/06 04:01:47;;;;;;;;;;;;;;;2.82;93.50;97183.56;1624351;87;22074;-92
2022/01/06 04:04:14;;;;;;;;;;;;;;;2.80;93.48;97181.52;1623818;87;26889;-84
2022/01/06 04:06:40;;;;;;;;;;;;;;;2.80;93.46;97178.94;1623423;88;24517;-84
2022/01/06 04:09:06;;;;;;;;;;;;;;;2.81;93.43;97181.44;1621804;88;20483;-86
2022/01/06 04:11:41;;;;;;;;;;;;;;;2.82;93.41;97183.56;1620718;87;24785;-92
2022/01/06 04:14:07;;;;;;;;;;;;;;;2.80;93.39;97193.98;1622725;86;21966;-85
2022/01/06 04:16:36;;;;;;;;;;;;;;;2.80;93.37;97195.27;1626092;88;21356;-85
2022/01/06 04:19:02;;;;;;;;;;;;;;;2.81;93.36;97205.98;1643191;86;24637;-85
2022/01/06 04:21:28;;;;;;;;;;;;;;;2.80;93.33;97209.47;1600112;87;20454;-85
2022/01/06 04:23:54;;;;;;;;;;;;;;;2.81;93.30;97212.44;1627091;87;24715;-86
2022/01/06 04:26:20;;;;;;;;;;;;;;;2.80;93.28;97219.81;1624183;88;22048;-86
2022/01/06 04:28:48;;;;;;;;;;;;;;;2.80;93.26;97221.55;1596024;88;26096;-92
2022/01/06 04:31:23;;;;;;;;;;;;;;;2.80;93.26;97217.23;1626400;88;24283;-91
2022/01/06 04:33:49;;;;;;;;;;;;;;;2.81;93.25;97224.06;1629507;86;20484;-87
2022/01/06 04:36:15;;;;;;;;;;;;;;;2.82;93.27;97232.19;1619004;87;24828;-91
2022/01/06 04:38:41;;;;;;;;;;;;;;;2.82;93.28;97237.81;1623637;87;21963;-84
2022/01/06 04:41:07;;;;;;;;;;;;;;;2.83;93.29;97239.48;1593801;88;25962;-84
2022/01/06 04:43:33;;;;;;;;;;;;;;;2.84;93.32;97241.95;1623223;86;25292;-91
2022/01/06 04:46:00;;;;;;;;;;;;;;;2.86;93.36;97238.83;1617178;88;20217;-87
2022/01/06 04:48:37;;;;;;;;;;;;;;;2.87;93.42;97231.45;1625510;87;25520;-91
2022/01/06 04:51:03;;;;;;;;;;;;;;;2.90;93.48;97240.77;1630957;87;22007;-84
2022/01/06 04:53:29;;;;;;;;;;;;;;;2.92;93.53;97240.23;1628436;86;25880;-85
2022/01/06 04:55:57;;;;;;;;;;;;;;;2.91;93.55;97238.56;1590066;88;24525;-88
2022/01/06 04:58:26;;;;;;;;;;;;;;;2.89;93.57;97234.77;1588945;88;20339;-91
2022/01/06 05:00:53;;;;;;;;;;;;;;;2.91;93.59;97239.85;1584199;90;25474;-88
2022/01/06 05:03:22;;;;;;;;;;;;;;;2.92;93.58;97238.48;1604205;88;20395;-86
2022/01/06 05:05:51;;;;;;;;;;;;;;;2.91;93.62;97231.64;1618083;86;26252;-83
2022/01/06 05:08:17;;;;;;;;;;;;;;;2.93;93.65;97241.44;1614189;86;24432;-84
2022/01/06 05:10:43;;;;;;;;;;;;;;;2.95;93.69;97241.33;1624866;86;20296;-83
2022/01/06 05:13:11;;;;;;;;;;;;;;;2.95;93.72;97242.62;1585868;88;24804;-90
2022/01/06 05:15:38;;;;;;;;;;;;;;;2.95;93.72;97241.33;1600938;89;22256;-83
2022/01/06 05:18:04;;;;;;;;;;;;;;;2.97;93.74;97237.37;1602750;89;26053;-85
2022/01/06 05:20:30;;;;;;;;;;;;;;;2.95;93.73;97242.62;1588009;89;24435;-83
2022/01/06 05:22:57;;;;;;;;;;;;;;;2.95;93.74;97249.08;1582624;89;20318;-83
2022/01/06 05:25:30;;;;;;;;;;;;;;;2.92;93.71;97237.19;1588835;89;24740;-88
2022/01/06 05:27:55;;;;;;;;;;;;;;;2.94;93.74;97240.98;1612085;86;22219;-90
2022/01/06 05:30:21;;;;;;;;;;;;;;;2.95;93.75;97249.91;1579581;89;26093;-88
2022/01/06 05:32:52;;;;;;;;;;;;;;;2.96;93.78;97244.28;1594803;89;24520;-87
2022/01/06 05:35:18;;;;;;;;;;;;;;;2.97;93.81;97251.13;1592983;89;20262;-92
2022/01/06 05:37:50;;;;;;;;;;;;;;;2.98;93.83;97253.25;1610897;88;24733;-91
2022/01/06 05:40:16;;;;;;;;;;;;;;;3.00;93.87;97250.13;1614524;88;22090;-92
2022/01/06 05:42:42;;;;;;;;;;;;;;;2.99;93.88;97251.88;1615166;86;25987;-84
2022/01/06 05:45:09;;;;;;;;;;;;;;;2.99;93.89;97248.45;1585388;88;24475;-88
2022/01/06 05:47:35;;;;;;;;;;;;;;;2.98;93.89;97255.38;1569520;89;20266;-88
2022/01/06 05:50:02;;;;;;;;;;;;;;;2.98;93.90;97251.50;1587618;89;24753;-88
2022/01/06 05:52:28;;;;;;;;;;;;;;;2.96;93.90;97250.75;1593626;87;22097;-84
2022/01/06 05:54:54;;;;;;;;;;;;;;;2.97;93.89;97252.41;1604899;88;25996;-85
2022/01/06 05:57:20;;;;;;;;;;;;;;;3.00;93.93;97256.59;1582025;89;24399;-86
2022/01/06 05:59:52;;;;;;;;;;;;;;;2.99;93.98;97252.34;1595175;88;20220;-86
2022/01/06 06:02:20;;;;;;;;;;;;;;;3.00;94.00;97250.93;1601637;87;24830;-87
2022/01/06 06:04:46;;;;;;;;;;;;;;;3.03;94.03;97257.23;1589149;88;21969;-84
2022/01/06 06:07:12;;;;;;;;;;;;;;;3.05;94.10;97259.73;1574175;89;25848;-84
2022/01/06 06:09:38;;;;;;;;;;;;;;;3.05;94.15;97259.73;1589956;88;24532;-83
2022/01/06 06:12:06;;;;;;;;;;;;;;;3.04;94.17;97262.77;1593775;88;20309;-83
2022/01/06 06:14:32;;;;;;;;;;;;;;;3.05;94.20;97263.16;1592047;88;24826;-86
2022/01/06 06:16:59;;;;;;;;;;;;;;;3.07;94.26;97265.63;1579923;89;22134;-92
2022/01/06 06:19:25;;;;;;;;;;;;;;;3.07;94.29;97263.04;1577914;87;26071;-89
2022/01/06 06:21:52;;;;;;;;;;;;;;;3.05;94.31;97270.91;1581623;88;24498;-87
2022/01/06 06:24:20;;;;;;;;;;;;;;;3.05;94.29;97273.95;1581157;89;20208;-88
2022/01/06 06:26:46;;;;;;;;;;;;;;;3.09;94.35;97272.84;1593743;88;25449;-84
2022/01/06 06:29:18;;;;;;;;;;;;;;;3.09;94.38;97272.38;1594403;88;22032;-83
2022/01/06 06:31:44;;;;;;;;;;;;;;;3.08;94.41;97283.63;1594175;89;26064;-85
2022/01/06 06:34:11;;;;;;;;;;;;;;;3.09;94.44;97289.64;1608062;87;24522;-83
2022/01/06 06:36:37;;;;;;;;;;;;;;;3.11;94.47;97291.69;1592889;88;20261;-85
2022/01/06 06:39:04;;;;;;;;;;;;;;;3.13;94.50;97293.70;1588206;89;24732;-88
2022/01/06 06:41:30;;;;;;;;;;;;;;;3.13;94.54;97295.83;1579588;87;22057;-88
2022/01/06 06:43:56;;;;;;;;;;;;;;;3.15;94.58;97294.45;1570322;87;26228;-88
2022/01/06 06:46:23;;;;;;;;;;;;;;;3.16;94.67;97289.66;1598884;88;24591;-88
2022/01/06 06:48:49;;;;;;;;;;;;;;;3.16;94.70;97290.50;1593397;88;20243;-88
2022/01/06 06:51:15;;;;;;;;;;;;;;;3.14;94.69;97297.50;1592158;90;24839;-87
2022/01/06 06:53:42;;;;;;;;;;;;;;;3.15;94.71;97298.33;1592415;90;22140;-88
2022/01/06 06:56:08;;;;;;;;;;;;;;;3.15;94.71;97305.63;1593402;90;26069;-84
2022/01/06 06:58:36;;;;;;;;;;;;;;;3.16;94.74;97306.46;1591932;89;24623;-84
2022/01/06 07:01:02;;;;;;;;;;;;;;;3.16;94.77;97310.34;1591653;89;20258;-84
2022/01/06 07:03:31;;;;;;;;;;;;;;;3.16;94.78;97316.34;1594430;89;24900;-84
2022/01/06 07:06:03;;;;;;;;;;;;;;;3.16;94.79;97316.80;1589401;90;21986;-92
2022/01/06 07:08:29;;;;;;;;;;;;;;;3.18;94.81;97312.36;1586203;89;26271;-85
2022/01/06 07:10:55;;;;;;;;;;;;;;;3.17;94.83;97320.56;1593617;89;20262;-86
2022/01/06 07:13:21;;;;;;;;;;;;;;;3.18;94.86;97320.11;1591223;89;20334;-84
2022/01/06 07:15:53;;;;;;;;;;;;;;;3.17;94.90;97325.73;1620975;87;24874;-91
2022/01/06 07:18:20;;;;;;;;;;;;;;;3.17;94.92;97324.45;1604451;88;22251;-90
2022/01/06 07:20:47;;;;;;;;;;;;;;;3.16;94.97;97327.14;1619416;88;26161;-90
2022/01/06 07:23:23;;;;;;;;;;;;;;;3.17;94.96;97330.08;1579256;88;24469;-94
2022/01/06 07:25:54;;;;;;;;;;;;;;;3.15;94.96;97339.23;1573929;90;20228;-84
2022/01/06 07:28:21;;;;;;;;;;;;;;;3.18;95.00;97339.50;1569481;90;24862;-83
2022/01/06 07:30:52;;;;;;;;;;;;;;;3.16;95.01;97333.61;1572985;89;22701;-91
2022/01/06 07:33:19;;;;;;;;;;;;;;;3.17;95.04;97337.83;1573966;90;25972;-91
2022/01/06 07:35:45;;;;;;;;;;;;;;;3.16;95.06;97342.66;1573740;91;24451;-91
2022/01/06 07:38:11;;;;;;;;;;;;;;;3.17;95.06;97346.88;1584353;90;20177;-93
2022/01/06 07:40:39;;;;;;;;;;;;;;;3.17;95.09;97353.34;1567306;90;24771;-91
2022/01/06 07:43:05;;;;;;;;;;;;;;;3.16;95.12;97346.53;1604646;88;22003;-84
2022/01/06 07:45:32;;;;;;;;;;;;;;;3.15;95.14;97345.70;1613911;87;26072;-88
2022/01/06 07:48:02;;;;;;;;;;;;;;;3.15;95.14;97348.73;1593416;88;24528;-87
2022/01/06 07:50:28;;;;;;;;;;;;;;;3.14;95.15;97354.82;1618772;88;20300;-88
2022/01/06 07:52:55;;;;;;;;;;;;;;;3.12;95.13;97363.95;1625823;86;24777;-87
2022/01/06 07:55:21;;;;;;;;;;;;;;;3.13;95.18;97364.33;1624627;88;21965;-90
2022/01/06 07:57:49;;;;;;;;;;;;;;;3.15;95.24;97369.41;1622669;86;26064;-88
2022/01/06 08:00:15;;;;;;;;;;;;;;;3.17;95.29;97373.56;1619166;88;25196;-88
2022/01/06 08:02:41;;;;;;;;;;;;;;;3.16;95.30;97372.37;1620062;87;20342;-88
2022/01/06 08:05:10;;;;;;;;;;;;;;;3.16;95.36;97372.37;1621184;88;24609;-85
2022/01/06 08:07:36;;;;;;;;;;;;;;;3.15;95.38;97365.08;1598924;88;22042;-86
2022/01/06 08:10:02;;;;;;;;;;;;;;;3.16;95.39;97373.22;1628125;87;26106;-88
2022/01/06 08:12:28;;;;;;;;;;;;;;;3.17;95.44;97376.60;1623251;87;24671;-84
2022/01/06 08:14:57;;;;;;;;;;;;;;;3.17;95.47;97381.77;1626939;86;20404;-90
2022/01/06 08:17:27;;;;;;;;;;;;;;;3.18;95.53;97381.69;1624026;88;24230;-86
2022/01/06 08:19:57;;;;;;;;;;;;;;;3.20;95.58;97389.38;1608756;88;22530;-91
2022/01/06 08:22:23;;;;;;;;;;;;;;;3.22;95.67;97383.17;1624781;88;25964;-84
2022/01/06 08:24:52;;;;;;;;;;;;;;;3.24;95.73;97399.90;1625710;88;25167;-87
2022/01/06 08:27:18;;;;;;;;;;;;;;;3.28;95.80;97402.67;1624471;87;20248;-90
2022/01/06 08:29:54;;;;;;;;;;;;;;;3.30;95.89;97400.84;1626805;85;24849;-91
2022/01/06 08:32:20;;;;;;;;;;;;;;;3.35;95.98;97401.41;1626081;88;21926;-87
2022/01/06 08:34:47;;;;;;;;;;;;;;;3.38;96.04;97393.01;1624330;86;26107;-90
2022/01/06 08:37:14;;;;;;;;;;;;;;;3.40;96.08;97393.39;1597909;87;24398;-85
2022/01/06 08:39:40;;;;;;;;;;;;;;;3.41;96.16;97395.06;1621876;87;20540;-90
2022/01/06 08:42:06;;;;;;;;;;;;;;;3.45;96.20;97407.72;1620908;87;24799;-88
2022/01/06 08:44:32;;;;;;;;;;;;;;;3.49;96.26;97408.39;1625066;88;22036;-87
2022/01/06 08:47:00;;;;;;;;;;;;;;;3.51;96.34;97409.11;1619544;88;26044;-90
2022/01/06 08:49:29;;;;;;;;;;;;;;;3.53;96.35;97411.16;1631613;86;25521;-86
2022/01/06 08:51:56;;;;;;;;;;;;;;;3.52;96.36;97418.09;1599131;87;20587;-87
2022/01/06 08:54:22;;;;;;;;;;;;;;;3.55;96.38;97419.65;1624218;87;24705;-85
2022/01/06 08:56:48;;;;;;;;;;;;;;;3.56;96.44;97419.57;1624937;88;20235;-86
2022/01/06 08:59:14;;;;;;;;;;;;;;;3.56;96.44;97423.45;1598737;89;21015;-86
2022/01/06 09:01:40;;;;;;;;;;;;;;;3.54;96.42;97425.31;1597777;86;24543;-86
2022/01/06 09:04:06;;;;;;;;;;;;;;;3.54;96.39;97425.31;1593814;87;20872;-87
2022/01/06 09:06:32;;;;;;;;;;;;;;;3.57;96.42;97428.16;1600049;87;24791;-87
2022/01/06 09:08:58;;;;;;;;;;;;;;;3.61;96.48;97424.47;1596429;88;20932;-87
2022/01/06 09:11:24;;;;;;;;;;;;;;;3.64;96.53;97428.19;1595290;88;26071;-86
2022/01/06 09:13:56;;;;;;;;;;;;;;;3.66;96.58;97429.75;1593453;88;24690;-88
2022/01/06 09:16:23;;;;;;;;;;;;;;;3.70;96.66;97435.14;1597543;88;20577;-88
2022/01/06 09:18:49;;;;;;;;;;;;;;;3.72;96.71;97427.27;1598491;87;25140;-85
2022/01/06 09:21:22;;;;;;;;;;;;;;;3.72;96.74;97430.69;1597356;88;22021;-86
2022/01/06 09:23:45;;;;;;;;;;;;;;;3.74;96.76;97429.31;1597710;88;26678;-85
2022/01/06 09:26:11;;;;;;;;;;;;;;;3.75;96.77;97430.98;1595882;89;24495;-92
2022/01/06 09:28:39;;;;;;;;;;;;;;;3.76;96.77;97431.36;1593422;87;20323;-88
2022/01/06 09:31:05;;;;;;;;;;;;;;;3.76;96.78;97430.06;1599922;87;25234;-85
2022/01/06 09:33:35;;;;;;;;;;;;;;;3.77;96.80;97437.72;1597290;87;21881;-91
2022/01/06 09:36:01;;;;;;;;;;;;;;;3.76;96.77;97424.41;1627720;86;26053;-85
2022/01/06 09:38:27;;;;;;;;;;;;;;;3.74;96.74;97424.98;1626169;87;24541;-85
2022/01/06 09:40:53;;;;;;;;;;;;;;;3.74;96.70;97437.91;1608482;88;20348;-85
2022/01/06 09:43:25;;;;;;;;;;;;;;;3.75;96.69;97436.16;1625373;86;24836;-87
2022/01/06 09:45:51;;;;;;;;;;;;;;;3.73;96.67;97437.99;1621578;86;21956;-87
2022/01/06 09:48:19;;;;;;;;;;;;;;;3.73;96.64;97440.58;1602256;89;26124;-88
2022/01/06 09:50:47;;;;;;;;;;;;;;;3.75;96.62;97440.87;1589992;89;21285;-89
2022/01/06 09:53:13;;;;;;;;;;;;;;;3.74;96.61;97446.97;1607852;89;20890;-87
2022/01/06 09:55:40;;;;;;;;;;;;;;;3.74;96.62;97439.20;1609548;88;24807;-87
2022/01/06 09:58:06;;;;;;;;;;;;;;;3.77;96.67;97446.77;1595229;89;22082;-89
2022/01/06 10:00:33;;;;;;;;;;;;;;;3.79;96.71;97450.12;1594912;89;26248;-88
2022/01/06 10:03:01;;;;;;;;;;;;;;;3.77;96.70;97454.54;1594347;90;24470;-89
2022/01/06 10:05:44;;;;;;;;;;;;;;;3.77;96.71;97451.11;1594500;89;20192;-88
2022/01/06 10:08:27;;;;;;;;;;;;;;;3.76;96.70;97450.28;1593402;89;24401;-90
2022/01/06 10:11:13;;;;;;;;;;;;;;;3.73;96.69;97464.70;1595191;90;22767;-91
2022/01/06 10:13:41;;;;;;;;;;;;;;;3.73;96.72;97467.29;1594589;90;26009;-90
2022/01/06 10:16:14;;;;;;;;;;;;;;;3.74;96.79;97496.59;1594455;90;24047;-85
2022/01/06 10:18:42;;;;;;;;;;;;;;;3.62;96.78;97527.87;1613213;87;20510;-91
2022/01/06 10:21:21;;;;;;;;;;;;;;;3.28;96.59;97541.00;1614757;87;24664;-93
2022/01/06 10:24:15;;;;;;;;;;;;;;;2.94;96.32;97548.02;1622191;87;21947;-92
2022/01/06 10:26:39;;;;;;;;;;;;;;;2.70;96.18;97546.73;1583311;90;26072;-86
2022/01/06 10:29:14;;;;;;;;;;;;;;;2.48;96.06;97552.17;1604542;88;24463;-94
2022/01/06 10:31:40;;;;;;;;;;;;;;;2.31;96.05;97553.95;1588104;89;20495;-87
2022/01/06 10:34:15;;;;;;;;;;;;;;;2.14;96.07;97561.25;1595837;88;25521;-86
2022/01/06 10:36:41;;;;;;;;;;;;;;;2.05;96.20;97554.81;1571353;90;22068;-86
2022/01/06 10:39:12;;;;;;;;;;;;;;;2.05;96.44;97547.07;1594901;90;26094;-86
2022/01/06 10:41:37;;;;;;;;;;;;;;;2.05;96.72;97553.52;1594692;89;24662;-91
2022/01/06 10:44:09;;;;;;;;;;;;;;;2.03;96.99;97555.33;1594058;89;20197;-93
2022/01/06 10:46:35;;;;;;;;;;;;;;;1.98;97.23;97561.17;1603038;88;24975;-92
2022/01/06 10:49:08;;;;;;;;;;;;;;;1.96;97.49;97562.18;1611884;88;22029;-93
2022/01/06 10:51:35;;;;;;;;;;;;;;;1.93;97.72;97559.73;1613517;88;26177;-88
2022/01/06 10:54:02;;;;;;;;;;;;;;;1.95;98.01;97566.95;1614624;86;24507;-88
2022/01/06 10:56:28;;;;;;;;;;;;;;;1.95;98.30;97574.24;1603499;88;20481;-88
2022/01/06 10:59:01;;;;;;;;;;;;;;;1.97;98.55;97577.56;1599961;88;25715;-92
2022/01/06 11:01:30;;;;;;;;;;;;;;;1.99;98.85;97571.88;1597108;89;22175;-93
2022/01/06 11:03:58;;;;;;;;;;;;;;;2.02;99.12;97574.30;1598827;89;26162;-86
2022/01/06 11:06:24;;;;;;;;;;;;;;;2.04;99.42;97572.48;1597260;89;24507;-86
2022/01/06 11:08:51;;;;;;;;;;;;;;;2.03;99.67;97581.13;1599549;89;20223;-86
2022/01/06 11:11:42;;;;;;;;;;;;;;;2.04;99.88;97583.27;1598802;89;24719;-86
2022/01/06 11:13:54;;;;;;;;;;;;;;;2.07;100.00;97598.13;1597459;88;22087;-86
2022/01/06 11:16:20;;;;;;;;;;;;;;;2.10;100.00;97599.73;1597263;89;26243;-86
2022/01/06 11:18:52;;;;;;;;;;;;;;;2.06;100.00;97605.97;1598843;89;25321;-90
2022/01/06 11:24:14;;;;;;;;;;;;;;;1.76;100.00;97606.14;1572501;89;24896;-89
2022/01/06 11:26:43;;;;;;;;;;;;;;;1.62;100.00;97606.37;1581846;89;22715;-89
2022/01/06 11:29:11;;;;;;;;;;;;;;;1.60;100.00;97617.65;1598169;89;26064;-88
2022/01/06 11:31:39;;;;;;;;;;;;;;;1.60;100.00;97622.35;1599165;89;25293;-89
2022/01/06 11:37:15;;;;;;;;;;;;;;;1.54;100.00;97627.80;1591627;89;24895;-92
2022/01/06 11:39:52;;;;;;;;;;;;;;;1.52;100.00;97635.23;1611701;88;22127;-93
2022/01/06 11:42:25;;;;;;;;;;;;;;;1.49;100.00;97650.83;1592095;90;26621;-92
2022/01/06 11:44:58;;;;;;;;;;;;;;;1.41;100.00;97658.93;1608040;88;24485;-91
2022/01/06 11:47:28;;;;;;;;;;;;;;;1.40;100.00;97665.44;1608554;87;20207;-89
2022/01/06 11:49:56;;;;;;;;;;;;;;;1.36;100.00;97658.76;1602531;88;24931;-89
2022/01/06 11:52:23;;;;;;;;;;;;;;;1.39;100.00;97667.63;1603644;88;22076;-89
2022/01/06 11:54:50;;;;;;;;;;;;;;;1.37;100.00;97668.14;1611615;88;26046;-86
2022/01/06 11:57:36;;;;;;;;;;;;;;;1.38;100.00;97671.10;1609277;88;24483;-88
2022/01/06 12:00:20;;;;;;;;;;;;;;;1.39;100.00;97679.23;1608576;87;20225;-92
2022/01/06 12:03:06;;;;;;;;;;;;;;;1.29;100.00;97682.67;1596327;86;24874;-90
2022/01/06 12:05:59;;;;;;;;;;;;;;;1.14;100.00;97679.05;1621633;86;22238;-91
2022/01/06 12:08:41;;;;;;;;;;;;;;;1.04;100.00;97685.48;1623658;86;25979;-88
2022/01/06 12:11:10;;;;;;;;;;;;;;;1.01;100.00;97685.63;1624185;86;24692;-89
2022/01/06 12:13:45;;;;;;;;;;;;;;;1.01;100.00;97693.36;1612277;86;20265;-86
2022/01/06 12:16:34;;;;;;;;;;;;;;;1.03;100.00;97699.30;1608595;85;24811;-86
2022/01/06 12:19:02;;;;;;;;;;;;;;;1.07;100.00;97707.27;1610595;85;22051;-86
2022/01/06 12:21:28;;;;;;;;;;;;;;;1.13;100.00;97705.72;1610448;87;26053;-89
2022/01/06 12:24:05;;;;;;;;;;;;;;;1.17;100.00;97716.27;1624267;86;24507;-89
2022/01/06 12:26:32;;;;;;;;;;;;;;;1.20;100.00;97712.73;1621798;86;20688;-88
2022/01/06 12:28:59;;;;;;;;;;;;;;;1.26;100.00;97713.72;1623872;86;24790;-89
2022/01/06 12:31:32;;;;;;;;;;;;;;;1.23;100.00;97719.86;1623262;86;21972;-89
2022/01/06 12:34:02;;;;;;;;;;;;;;;1.21;100.00;97728.10;1629481;86;26868;-89
2022/01/06 12:36:30;;;;;;;;;;;;;;;1.21;100.00;97737.57;1597221;87;24581;-89
2022/01/06 12:38:56;;;;;;;;;;;;;;;1.13;100.00;97733.22;1626102;87;20303;-90
2022/01/06 12:41:32;;;;;;;;;;;;;;;1.07;100.00;97743.34;1626186;86;24784;-89
2022/01/06 12:43:59;;;;;;;;;;;;;;;0.99;100.00;97749.70;1625068;86;22254;-88
2022/01/06 12:46:32;;;;;;;;;;;;;;;0.97;100.00;97754.95;1616491;88;26014;-88
2022/01/06 12:48:58;;;;;;;;;;;;;;;0.94;100.00;97755.05;1624904;86;24426;-88
2022/01/06 12:51:26;;;;;;;;;;;;;;;0.84;100.00;97749.46;1627804;87;20169;-88
2022/01/06 12:53:54;;;;;;;;;;;;;;;0.76;100.00;97770.02;1596938;88;25678;-91
2022/01/06 12:56:33;;;;;;;;;;;;;;;0.73;100.00;97766.26;1626588;86;22005;-90
2022/01/06 12:59:01;;;;;;;;;;;;;;;0.71;100.00;97774.52;1614329;86;25730;-92
2022/01/06 13:01:28;;;;;;;;;;;;;;;0.70;100.00;97788.28;1599877;89;24524;-89
2022/01/06 13:03:55;;;;;;;;;;;;;;;0.74;100.00;97796.27;1593450;88;20469;-88
2022/01/06 13:06:25;;;;;;;;;;;;;;;0.77;100.00;97807.71;1595843;88;24807;-88
2022/01/06 13:08:54;;;;;;;;;;;;;;;0.80;100.00;97818.75;1596582;86;22099;-85
2022/01/06 13:11:24;;;;;;;;;;;;;;;0.77;100.00;97829.59;1592664;88;25989;-88
2022/01/06 13:13:53;;;;;;;;;;;;;;;0.70;100.00;97841.06;1622518;87;24491;-89